Time;durP1;ratioP1;P1;durP2;ratioP2;P2;SDS_P1;SDS_P2;PMS_P1;PMS_P2;Temp;Humidity;BMP_temperature;BMP_pressure;BME280_temperature;BME280_humidity;BME280_pressure;Samples;Min_cycle;Max_cycle;Signal;HPM_P1;HPM_P2
2022/03/31 00:00:29;;;;;;;5.33;4.50;;;;;;;;;;5041346;28;20227;-54
2022/03/31 00:02:56;;;;;;;7.90;6.17;;;;;;;;;;5026188;28;20443;-54
2022/03/31 00:05:22;;;;;;;6.33;5.73;;;;;;;;;;5036914;28;20348;-54
2022/03/31 00:07:52;;;;;;;6.93;5.57;;;;;;;;;;5047896;28;20264;-56
2022/03/31 00:10:29;;;;;;;6.47;5.67;;;;;;;;;;5044275;28;20320;-56
2022/03/31 00:12:56;;;;;;;6.13;5.43;;;;;;;;;;5047113;28;20212;-54
2022/03/31 00:15:24;;;;;;;7.33;6.07;;;;;;;;;;5043200;28;20183;-54
2022/03/31 00:17:50;;;;;;;5.70;5.20;;;;;;;;;;5045998;28;20188;-52
2022/03/31 00:20:16;;;;;;;6.07;5.33;;;;;;;;;;5046262;28;20188;-53
2022/03/31 00:22:43;;;;;;;7.87;6.17;;;;;;;;;;5046676;28;20223;-52
2022/03/31 00:25:11;;;;;;;6.60;5.93;;;;;;;;;;5043819;28;20196;-56
2022/03/31 00:27:38;;;;;;;8.00;5.30;;;;;;;;;;5048887;28;20242;-52
2022/03/31 00:30:05;;;;;;;7.47;5.40;;;;;;;;;;5049133;28;20212;-53
2022/03/31 00:32:32;;;;;;;6.70;5.13;;;;;;;;;;5040927;28;20239;-54
2022/03/31 00:34:59;;;;;;;6.63;5.40;;;;;;;;;;5046124;28;20181;-56
2022/03/31 00:37:27;;;;;;;6.53;5.50;;;;;;;;;;5049238;28;20184;-54
2022/03/31 00:39:54;;;;;;;9.40;5.63;;;;;;;;;;5048958;28;20222;-54
2022/03/31 00:42:21;;;;;;;6.20;5.30;;;;;;;;;;5049496;28;20711;-54
2022/03/31 00:44:47;;;;;;;6.00;5.40;;;;;;;;;;5050531;28;20208;-54
2022/03/31 00:47:13;;;;;;;6.03;5.53;;;;;;;;;;5050698;28;20181;-54
2022/03/31 00:49:39;;;;;;;7.07;6.03;;;;;;;;;;5048933;28;20184;-53
2022/03/31 00:52:06;;;;;;;5.73;5.10;;;;;;;;;;5049370;28;20212;-53
2022/03/31 00:54:33;;;;;;;5.53;4.73;;;;;;;;;;5048620;28;20185;-54
2022/03/31 00:56:59;;;;;;;5.77;5.17;;;;;;;;;;5046841;28;20197;-54
2022/03/31 00:59:26;;;;;;;7.30;5.70;;;;;;;;;;5050094;28;20184;-54
2022/03/31 01:01:52;;;;;;;6.67;5.30;;;;;;;;;;5029476;28;20192;-55
2022/03/31 01:04:19;;;;;;;6.83;5.73;;;;;;;;;;5049007;28;20243;-54
2022/03/31 01:06:45;;;;;;;6.43;5.60;;;;;;;;;;5045452;28;20228;-55
2022/03/31 01:09:12;;;;;;;5.97;5.37;;;;;;;;;;5049869;28;20228;-53
2022/03/31 01:11:39;;;;;;;5.53;5.03;;;;;;;;;;5025781;28;20221;-53
2022/03/31 01:14:06;;;;;;;6.73;5.53;;;;;;;;;;5047966;28;20220;-53
2022/03/31 01:16:33;;;;;;;6.60;5.53;;;;;;;;;;5047175;28;20235;-53
2022/03/31 01:19:03;;;;;;;6.70;5.03;;;;;;;;;;5048130;28;20181;-54
2022/03/31 01:21:30;;;;;;;6.93;5.53;;;;;;;;;;5046069;28;20197;-54
2022/03/31 01:23:56;;;;;;;6.80;5.90;;;;;;;;;;5049078;28;20600;-53
2022/03/31 01:26:23;;;;;;;5.97;4.57;;;;;;;;;;5044392;28;20722;-53
2022/03/31 01:28:50;;;;;;;6.90;4.87;;;;;;;;;;5043863;28;20189;-54
2022/03/31 01:31:17;;;;;;;5.57;5.00;;;;;;;;;;5045708;28;20200;-54
2022/03/31 01:33:43;;;;;;;7.10;5.40;;;;;;;;;;5047834;28;20238;-53
2022/03/31 01:36:09;;;;;;;7.50;5.60;;;;;;;;;;5044861;28;20311;-53
2022/03/31 01:38:36;;;;;;;6.13;5.20;;;;;;;;;;5049616;28;20187;-55
2022/03/31 01:41:03;;;;;;;6.77;5.43;;;;;;;;;;5044047;28;20249;-53
2022/03/31 01:43:29;;;;;;;5.93;5.33;;;;;;;;;;5050165;28;20188;-53
2022/03/31 01:45:56;;;;;;;7.03;5.27;;;;;;;;;;5047109;28;20181;-53
2022/03/31 01:48:22;;;;;;;5.67;4.97;;;;;;;;;;5048073;28;20662;-53
2022/03/31 01:50:50;;;;;;;7.93;5.37;;;;;;;;;;5044720;28;20209;-54
2022/03/31 01:53:18;;;;;;;7.23;5.57;;;;;;;;;;5049764;28;20272;-54
2022/03/31 01:55:45;;;;;;;8.57;5.77;;;;;;;;;;5043097;28;20204;-53
2022/03/31 01:58:11;;;;;;;6.17;5.57;;;;;;;;;;5049423;28;20296;-54
2022/03/31 02:00:38;;;;;;;6.60;6.00;;;;;;;;;;5044837;28;20647;-55
2022/03/31 02:03:05;;;;;;;5.70;5.20;;;;;;;;;;5047697;28;20189;-53
2022/03/31 02:05:31;;;;;;;5.53;5.00;;;;;;;;;;5046477;28;20607;-54
2022/03/31 02:07:57;;;;;;;7.57;5.97;;;;;;;;;;5048753;28;20259;-53
2022/03/31 02:10:27;;;;;;;10.13;5.43;;;;;;;;;;5046449;28;20227;-53
2022/03/31 02:12:54;;;;;;;8.00;5.17;;;;;;;;;;5029208;28;20265;-53
2022/03/31 02:15:21;;;;;;;5.83;5.27;;;;;;;;;;5039057;28;20537;-54
2022/03/31 02:17:48;;;;;;;6.47;4.77;;;;;;;;;;5047013;28;20536;-54
2022/03/31 02:20:14;;;;;;;5.60;5.00;;;;;;;;;;5046767;28;20247;-54
2022/03/31 02:22:40;;;;;;;6.10;5.50;;;;;;;;;;5049126;28;20185;-54
2022/03/31 02:25:08;;;;;;;6.70;5.47;;;;;;;;;;5046080;28;20564;-55
2022/03/31 02:27:34;;;;;;;6.07;5.47;;;;;;;;;;5048324;28;20185;-54
2022/03/31 02:30:00;;;;;;;9.37;5.20;;;;;;;;;;5046938;28;20209;-54
2022/03/31 02:32:27;;;;;;;7.27;5.20;;;;;;;;;;5047860;28;20212;-55
2022/03/31 02:34:54;;;;;;;6.40;5.47;;;;;;;;;;5049440;28;20177;-54
2022/03/31 02:37:20;;;;;;;6.27;5.57;;;;;;;;;;5047077;28;20215;-54
2022/03/31 02:39:47;;;;;;;5.93;5.33;;;;;;;;;;5045843;28;20229;-55
2022/03/31 02:42:13;;;;;;;6.77;6.07;;;;;;;;;;5035538;28;20550;-53
2022/03/31 02:44:39;;;;;;;6.40;5.50;;;;;;;;;;5037036;28;20239;-52
2022/03/31 02:47:06;;;;;;;6.63;5.50;;;;;;;;;;5056345;28;20587;-55
2022/03/31 02:49:35;;;;;;;6.93;5.63;;;;;;;;;;5048724;28;20280;-54
2022/03/31 02:52:02;;;;;;;6.10;5.50;;;;;;;;;;5044044;28;20201;-54
2022/03/31 02:57:13;;;;;;;6.80;5.27;;;;;;;;;;5046824;28;20239;-53
2022/03/31 02:59:40;;;;;;;7.40;5.53;;;;;;;;;;5047042;28;20216;-53
2022/03/31 03:02:07;;;;;;;6.23;5.63;;;;;;;;;;5046813;28;20275;-54
2022/03/31 03:04:34;;;;;;;6.40;5.53;;;;;;;;;;5045260;28;20195;-53
2022/03/31 03:07:00;;;;;;;7.57;5.90;;;;;;;;;;5044529;28;20216;-54
2022/03/31 03:09:27;;;;;;;7.00;6.30;;;;;;;;;;5047491;28;20581;-54
2022/03/31 03:11:53;;;;;;;7.30;6.23;;;;;;;;;;5045900;28;20212;-54
2022/03/31 03:14:19;;;;;;;8.53;6.50;;;;;;;;;;5040645;28;20176;-56
2022/03/31 03:16:46;;;;;;;12.20;11.33;;;;;;;;;;5043906;28;20188;-54
2022/03/31 03:19:12;;;;;;;6.37;5.53;;;;;;;;;;5046407;28;20197;-54
2022/03/31 03:21:39;;;;;;;6.83;5.70;;;;;;;;;;5045896;28;20195;-54
2022/03/31 03:24:05;;;;;;;8.00;6.30;;;;;;;;;;5056027;28;20189;-55
2022/03/31 03:26:32;;;;;;;7.97;6.13;;;;;;;;;;5043975;28;20601;-56
2022/03/31 03:28:58;;;;;;;6.50;5.87;;;;;;;;;;5047674;28;20200;-55
2022/03/31 03:31:25;;;;;;;6.53;5.67;;;;;;;;;;5046217;28;20732;-55
2022/03/31 03:33:51;;;;;;;8.03;6.17;;;;;;;;;;5045576;28;20169;-54
2022/03/31 03:36:17;;;;;;;7.17;6.30;;;;;;;;;;5042432;28;20318;-55
2022/03/31 03:38:44;;;;;;;10.57;6.20;;;;;;;;;;5045587;28;20600;-54
2022/03/31 03:41:11;;;;;;;8.27;6.53;;;;;;;;;;5044669;28;20647;-54
2022/03/31 03:43:37;;;;;;;6.77;5.70;;;;;;;;;;5046710;28;20177;-55
2022/03/31 03:46:03;;;;;;;6.90;6.27;;;;;;;;;;5044490;28;20183;-54
2022/03/31 03:48:29;;;;;;;6.60;6.00;;;;;;;;;;5055909;28;20180;-54
2022/03/31 03:50:56;;;;;;;7.80;6.37;;;;;;;;;;5044111;28;20212;-54
2022/03/31 03:53:22;;;;;;;7.50;6.70;;;;;;;;;;5046154;28;20188;-54
2022/03/31 03:55:52;;;;;;;6.97;6.13;;;;;;;;;;5044679;28;20189;-54
2022/03/31 03:58:19;;;;;;;7.90;6.13;;;;;;;;;;5046557;28;20211;-55
2022/03/31 04:00:45;;;;;;;8.93;6.10;;;;;;;;;;5043031;28;20209;-54
2022/03/31 04:03:12;;;;;;;9.10;8.20;;;;;;;;;;5046516;28;20185;-54
2022/03/31 04:05:38;;;;;;;9.40;6.47;;;;;;;;;;5045707;28;20651;-54
2022/03/31 04:08:04;;;;;;;7.77;6.60;;;;;;;;;;5046393;28;20703;-56
2022/03/31 04:10:33;;;;;;;6.73;6.03;;;;;;;;;;5044150;28;20695;-54
2022/03/31 04:13:00;;;;;;;7.50;6.27;;;;;;;;;;5045819;28;20224;-54
2022/03/31 04:15:27;;;;;;;6.87;6.17;;;;;;;;;;5044199;28;20399;-54
2022/03/31 04:17:54;;;;;;;7.33;5.73;;;;;;;;;;5044871;28;20648;-55
2022/03/31 04:20:20;;;;;;;6.23;5.63;;;;;;;;;;5044007;28;20243;-52
2022/03/31 04:22:46;;;;;;;6.80;6.17;;;;;;;;;;5046077;28;20192;-53
2022/03/31 04:25:14;;;;;;;8.37;7.53;;;;;;;;;;5044400;28;20192;-55
2022/03/31 04:27:40;;;;;;;7.87;6.13;;;;;;;;;;5044442;28;20185;-55
2022/03/31 04:30:08;;;;;;;7.27;6.43;;;;;;;;;;5044914;28;20280;-53
2022/03/31 04:32:34;;;;;;;8.40;5.93;;;;;;;;;;5042464;28;20596;-54
2022/03/31 04:35:00;;;;;;;7.03;5.70;;;;;;;;;;5042984;28;20184;-54
2022/03/31 04:37:26;;;;;;;8.37;6.80;;;;;;;;;;5039184;28;20679;-55
2022/03/31 04:39:56;;;;;;;6.47;5.70;;;;;;;;;;5045954;28;20173;-52
2022/03/31 04:42:22;;;;;;;7.23;6.43;;;;;;;;;;5040967;28;20184;-54
2022/03/31 04:44:49;;;;;;;8.47;6.73;;;;;;;;;;5044012;28;20181;-56
2022/03/31 04:47:15;;;;;;;7.83;6.23;;;;;;;;;;5044129;28;20177;-55
2022/03/31 04:49:41;;;;;;;8.23;6.77;;;;;;;;;;5046955;28;20223;-55
2022/03/31 04:52:07;;;;;;;10.90;7.90;;;;;;;;;;5047123;28;20779;-53
2022/03/31 04:54:34;;;;;;;8.20;7.40;;;;;;;;;;5029608;28;20655;-53
2022/03/31 04:57:00;;;;;;;7.80;7.00;;;;;;;;;;5044717;28;20193;-54
2022/03/31 04:59:27;;;;;;;6.87;5.90;;;;;;;;;;5046942;28;20185;-53
2022/03/31 05:01:53;;;;;;;8.33;7.63;;;;;;;;;;5047480;28;20181;-53
2022/03/31 05:04:19;;;;;;;8.90;8.00;;;;;;;;;;5051658;28;20185;-53
2022/03/31 05:06:45;;;;;;;8.90;6.83;;;;;;;;;;5044093;28;20189;-54
2022/03/31 05:09:11;;;;;;;9.13;6.90;;;;;;;;;;5044958;28;20192;-55
2022/03/31 05:11:38;;;;;;;9.47;6.10;;;;;;;;;;5044657;28;20205;-56
2022/03/31 05:14:05;;;;;;;8.23;7.43;;;;;;;;;;5045471;28;20230;-53
2022/03/31 05:16:31;;;;;;;7.53;6.73;;;;;;;;;;5047168;28;20178;-53
2022/03/31 05:18:57;;;;;;;9.60;7.50;;;;;;;;;;5050365;28;20374;-53
2022/03/31 05:21:24;;;;;;;8.70;7.70;;;;;;;;;;5051060;28;20185;-53
2022/03/31 05:23:50;;;;;;;9.70;6.83;;;;;;;;;;5051168;28;20364;-53
2022/03/31 05:26:16;;;;;;;9.30;7.13;;;;;;;;;;5049351;28;20213;-53
2022/03/31 05:28:42;;;;;;;10.23;7.20;;;;;;;;;;5048057;28;20566;-53
2022/03/31 05:31:08;;;;;;;7.53;6.70;;;;;;;;;;5046749;28;20243;-53
2022/03/31 05:33:34;;;;;;;10.67;7.47;;;;;;;;;;5046040;28;20216;-53
2022/03/31 05:36:01;;;;;;;10.77;6.93;;;;;;;;;;5044769;28;20632;-53
2022/03/31 05:38:27;;;;;;;7.63;6.87;;;;;;;;;;5041034;28;20178;-53
2022/03/31 05:40:53;;;;;;;7.53;6.77;;;;;;;;;;5047659;28;20185;-53
2022/03/31 05:43:21;;;;;;;8.60;6.43;;;;;;;;;;5050242;28;20191;-55
2022/03/31 05:45:47;;;;;;;8.33;7.00;;;;;;;;;;5051687;28;20181;-53
2022/03/31 05:48:14;;;;;;;9.07;7.43;;;;;;;;;;5046393;28;20177;-53
2022/03/31 05:50:40;;;;;;;10.27;7.83;;;;;;;;;;5039445;28;20236;-54
2022/03/31 05:53:06;;;;;;;8.20;6.57;;;;;;;;;;5044367;28;20656;-53
2022/03/31 05:55:32;;;;;;;7.73;6.93;;;;;;;;;;5042988;28;20189;-53
2022/03/31 05:57:59;;;;;;;8.70;7.80;;;;;;;;;;5045342;28;20200;-53
2022/03/31 06:00:25;;;;;;;8.40;7.40;;;;;;;;;;5046458;28;20620;-54
2022/03/31 06:02:53;;;;;;;8.07;7.27;;;;;;;;;;5038297;28;20192;-54
2022/03/31 06:05:20;;;;;;;10.63;7.17;;;;;;;;;;5044636;28;20228;-53
2022/03/31 06:07:47;;;;;;;9.90;7.33;;;;;;;;;;5048628;28;20664;-53
2022/03/31 06:10:13;;;;;;;8.60;7.23;;;;;;;;;;5049263;28;20231;-53
2022/03/31 06:12:39;;;;;;;9.50;7.43;;;;;;;;;;5046436;28;20185;-54
2022/03/31 06:15:06;;;;;;;8.80;7.40;;;;;;;;;;5040418;28;20181;-54
2022/03/31 06:17:32;;;;;;;9.37;7.07;;;;;;;;;;5048395;28;20270;-54
2022/03/31 06:19:58;;;;;;;9.50;7.53;;;;;;;;;;5045783;28;20323;-53
2022/03/31 06:22:24;;;;;;;8.83;7.37;;;;;;;;;;5044942;28;20177;-54
2022/03/31 06:24:51;;;;;;;8.13;7.33;;;;;;;;;;5043505;28;20216;-54
2022/03/31 06:27:17;;;;;;;9.43;7.43;;;;;;;;;;5048537;28;20319;-53
2022/03/31 06:29:48;;;;;;;9.87;7.20;;;;;;;;;;5045223;28;20211;-54
2022/03/31 06:32:14;;;;;;;12.10;8.30;;;;;;;;;;5046819;28;20247;-54
2022/03/31 06:34:41;;;;;;;10.80;8.17;;;;;;;;;;5038683;28;20660;-55
2022/03/31 06:37:07;;;;;;;9.93;7.60;;;;;;;;;;5037578;28;20186;-54
2022/03/31 06:39:34;;;;;;;8.40;7.40;;;;;;;;;;5040297;28;20671;-53
2022/03/31 06:42:00;;;;;;;11.67;8.57;;;;;;;;;;5045877;28;20588;-54
2022/03/31 06:44:27;;;;;;;8.77;7.97;;;;;;;;;;5044380;28;20986;-54
2022/03/31 06:46:53;;;;;;;8.87;7.67;;;;;;;;;;5048743;28;20235;-53
2022/03/31 06:49:21;;;;;;;9.27;7.70;;;;;;;;;;5042638;28;20238;-53
2022/03/31 06:51:47;;;;;;;10.90;8.27;;;;;;;;;;5046854;28;20671;-54
2022/03/31 06:54:13;;;;;;;8.50;7.20;;;;;;;;;;5048963;28;20268;-53
2022/03/31 06:56:39;;;;;;;10.90;8.23;;;;;;;;;;5043977;28;20196;-53
2022/03/31 06:59:05;;;;;;;11.27;8.13;;;;;;;;;;5048999;28;20185;-53
2022/03/31 07:01:31;;;;;;;9.43;7.40;;;;;;;;;;5048801;28;20189;-54
2022/03/31 07:03:57;;;;;;;10.13;7.97;;;;;;;;;;5048045;28;20169;-54
2022/03/31 07:06:23;;;;;;;8.47;7.67;;;;;;;;;;5047072;28;20192;-53
2022/03/31 07:08:49;;;;;;;9.50;8.40;;;;;;;;;;5048846;28;20632;-53
2022/03/31 07:11:16;;;;;;;10.43;8.67;;;;;;;;;;5046399;28;20235;-53
2022/03/31 07:13:43;;;;;;;11.43;8.23;;;;;;;;;;5037256;28;20204;-57
2022/03/31 07:16:10;;;;;;;9.00;7.87;;;;;;;;;;5048792;28;20263;-55
2022/03/31 07:18:36;;;;;;;9.77;7.93;;;;;;;;;;5041732;28;20204;-54
2022/03/31 07:21:02;;;;;;;9.83;7.47;;;;;;;;;;5040523;28;20181;-55
2022/03/31 07:23:28;;;;;;;10.17;8.53;;;;;;;;;;5032937;28;20441;-55
2022/03/31 07:25:55;;;;;;;10.77;7.53;;;;;;;;;;5045092;28;20185;-56
2022/03/31 07:28:21;;;;;;;10.53;9.17;;;;;;;;;;5045600;28;20193;-54
2022/03/31 07:30:47;;;;;;;9.63;8.17;;;;;;;;;;5041651;28;20211;-55
2022/03/31 07:33:14;;;;;;;9.20;7.87;;;;;;;;;;5046693;28;20185;-56
2022/03/31 07:35:42;;;;;;;11.70;8.67;;;;;;;;;;5047931;28;20189;-54
2022/03/31 07:38:09;;;;;;;10.67;9.47;;;;;;;;;;5034712;28;20188;-54
2022/03/31 07:40:36;;;;;;;8.87;7.97;;;;;;;;;;5042086;28;20632;-57
2022/03/31 07:43:04;;;;;;;9.63;8.10;;;;;;;;;;5044098;28;20204;-56
2022/03/31 07:45:30;;;;;;;12.33;9.47;;;;;;;;;;5041201;28;20194;-57
2022/03/31 07:47:56;;;;;;;12.13;8.83;;;;;;;;;;5040868;28;20193;-57
2022/03/31 07:50:22;;;;;;;11.50;8.70;;;;;;;;;;5036994;28;20181;-56
2022/03/31 07:52:49;;;;;;;11.30;9.43;;;;;;;;;;5037173;28;20267;-57
2022/03/31 07:55:16;;;;;;;9.70;8.63;;;;;;;;;;5044073;28;20185;-56
2022/03/31 07:57:42;;;;;;;9.47;8.47;;;;;;;;;;5045033;28;20235;-56
2022/03/31 08:00:10;;;;;;;9.80;8.80;;;;;;;;;;5037055;28;20224;-56
2022/03/31 08:02:36;;;;;;;9.63;8.00;;;;;;;;;;5040148;28;20177;-58
2022/03/31 08:05:02;;;;;;;11.70;8.23;;;;;;;;;;5035397;28;20185;-56
2022/03/31 08:07:28;;;;;;;10.73;8.10;;;;;;;;;;5030607;28;20209;-56
2022/03/31 08:09:54;;;;;;;11.10;8.33;;;;;;;;;;5035112;28;20217;-55
2022/03/31 08:12:21;;;;;;;9.37;8.37;;;;;;;;;;5037658;28;20248;-58
2022/03/31 08:14:47;;;;;;;9.63;7.93;;;;;;;;;;5043221;28;20188;-56
2022/03/31 08:17:13;;;;;;;9.40;8.40;;;;;;;;;;5039567;28;20699;-56
2022/03/31 08:19:40;;;;;;;9.40;7.80;;;;;;;;;;5044434;28;20200;-55
2022/03/31 08:22:06;;;;;;;11.17;7.87;;;;;;;;;;5042245;28;20192;-57
2022/03/31 08:24:32;;;;;;;10.03;8.50;;;;;;;;;;5041517;28;20181;-56
2022/03/31 08:26:58;;;;;;;9.47;8.30;;;;;;;;;;5041661;28;20181;-56
2022/03/31 08:29:27;;;;;;;10.43;7.97;;;;;;;;;;5024249;28;20181;-55
2022/03/31 08:31:55;;;;;;;10.03;8.47;;;;;;;;;;5033919;28;20196;-56
2022/03/31 08:34:22;;;;;;;10.17;8.27;;;;;;;;;;5043883;28;20181;-56
2022/03/31 08:36:48;;;;;;;9.47;8.23;;;;;;;;;;5043115;28;20208;-55
2022/03/31 08:39:15;;;;;;;9.67;8.00;;;;;;;;;;5037610;28;20238;-56
2022/03/31 08:41:44;;;;;;;10.13;7.93;;;;;;;;;;5040460;28;20392;-56
2022/03/31 08:44:15;;;;;;;9.20;7.37;;;;;;;;;;5043961;28;20196;-55
2022/03/31 08:46:41;;;;;;;9.27;8.23;;;;;;;;;;5037471;28;20242;-55
2022/03/31 08:49:11;;;;;;;8.03;6.93;;;;;;;;;;5047424;28;20223;-57
2022/03/31 08:51:37;;;;;;;9.23;8.07;;;;;;;;;;5043088;28;20209;-57
2022/03/31 08:54:08;;;;;;;10.60;8.60;;;;;;;;;;5044793;28;20193;-56
2022/03/31 08:56:34;;;;;;;9.13;8.10;;;;;;;;;;5045867;28;20583;-57
2022/03/31 08:59:00;;;;;;;9.67;6.93;;;;;;;;;;5048653;28;20221;-56
2022/03/31 09:01:27;;;;;;;9.07;7.90;;;;;;;;;;5043062;28;20532;-57
2022/03/31 09:03:54;;;;;;;11.77;8.87;;;;;;;;;;5046002;28;20212;-56
2022/03/31 09:06:21;;;;;;;8.70;7.80;;;;;;;;;;5042210;28;20184;-57
2022/03/31 09:08:57;;;;;;;8.77;7.20;;;;;;;;;;5042515;28;20903;-57
2022/03/31 09:11:46;;;;;;;10.23;8.23;;;;;;;;;;5044197;28;20669;-58
2022/03/31 09:14:13;;;;;;;8.27;7.37;;;;;;;;;;5038372;28;20186;-56
2022/03/31 09:16:40;;;;;;;11.77;8.37;;;;;;;;;;5039341;28;20194;-55
2022/03/31 09:19:10;;;;;;;11.37;8.40;;;;;;;;;;5045137;28;20667;-56
2022/03/31 09:21:49;;;;;;;9.73;7.70;;;;;;;;;;5039886;28;20270;-57
2022/03/31 09:24:16;;;;;;;9.50;7.87;;;;;;;;;;5041371;28;20181;-56
2022/03/31 09:26:46;;;;;;;10.77;7.90;;;;;;;;;;5041588;28;20181;-56
2022/03/31 09:29:13;;;;;;;9.37;7.70;;;;;;;;;;5039008;28;20563;-56
2022/03/31 09:31:40;;;;;;;12.27;8.80;;;;;;;;;;5042932;28;20224;-56
2022/03/31 09:34:07;;;;;;;10.83;7.40;;;;;;;;;;5036524;28;20301;-57
2022/03/31 09:36:33;;;;;;;10.03;8.23;;;;;;;;;;5045172;28;20192;-57
2022/03/31 09:39:00;;;;;;;9.97;7.83;;;;;;;;;;5039397;28;20185;-55
2022/03/31 09:41:28;;;;;;;9.30;8.03;;;;;;;;;;5049311;28;20644;-56
2022/03/31 09:43:55;;;;;;;12.40;8.00;;;;;;;;;;5044786;28;20220;-56
2022/03/31 09:46:23;;;;;;;8.97;7.63;;;;;;;;;;5038470;28;21514;-56
2022/03/31 09:48:50;;;;;;;9.57;7.80;;;;;;;;;;5041937;28;20182;-55
2022/03/31 09:51:16;;;;;;;10.63;8.30;;;;;;;;;;5042233;28;20607;-55
2022/03/31 09:53:42;;;;;;;8.73;7.83;;;;;;;;;;5037369;28;20182;-57
2022/03/31 09:56:08;;;;;;;8.10;7.27;;;;;;;;;;5041985;28;20185;-55
2022/03/31 09:58:38;;;;;;;9.37;7.57;;;;;;;;;;5038532;28;20294;-55
2022/03/31 10:01:05;;;;;;;8.87;7.57;;;;;;;;;;5043953;28;20192;-55
2022/03/31 10:03:31;;;;;;;8.20;7.13;;;;;;;;;;5039314;28;20268;-54
2022/03/31 10:06:01;;;;;;;10.47;8.00;;;;;;;;;;5042831;28;20204;-56
2022/03/31 10:08:32;;;;;;;10.27;7.33;;;;;;;;;;5041099;28;20184;-55
2022/03/31 10:10:59;;;;;;;9.13;7.27;;;;;;;;;;5048236;28;20228;-56
2022/03/31 10:13:27;;;;;;;7.70;6.87;;;;;;;;;;5039544;28;20181;-56
2022/03/31 10:15:59;;;;;;;9.37;7.17;;;;;;;;;;5044038;28;20288;-57
2022/03/31 10:18:25;;;;;;;10.27;7.40;;;;;;;;;;5043902;28;20178;-56
2022/03/31 10:20:59;;;;;;;9.03;7.57;;;;;;;;;;5043987;28;20198;-56
2022/03/31 10:26:28;;;;;;;9.20;7.70;;;;;;;;;;5039256;28;20195;-57
2022/03/31 10:28:55;;;;;;;10.37;8.27;;;;;;;;;;5049285;28;20188;-59
2022/03/31 10:31:21;;;;;;;13.00;8.37;;;;;;;;;;5040077;28;20202;-55
2022/03/31 10:33:51;;;;;;;8.83;7.70;;;;;;;;;;5030990;28;20217;-57
2022/03/31 10:36:19;;;;;;;9.73;7.67;;;;;;;;;;5038749;28;20178;-57
2022/03/31 10:38:52;;;;;;;8.97;7.57;;;;;;;;;;5040483;28;20177;-56
2022/03/31 10:41:19;;;;;;;8.47;7.47;;;;;;;;;;5042060;28;20539;-55
2022/03/31 10:43:49;;;;;;;9.30;7.70;;;;;;;;;;5048182;28;20577;-56
2022/03/31 10:46:19;;;;;;;9.20;8.30;;;;;;;;;;5048275;28;20212;-56
2022/03/31 10:49:07;;;;;;;8.73;7.83;;;;;;;;;;5047263;28;20177;-57
2022/03/31 10:51:33;;;;;;;8.73;7.53;;;;;;;;;;5044988;28;20586;-58
2022/03/31 10:54:00;;;;;;;8.83;7.80;;;;;;;;;;5047102;28;20697;-55
2022/03/31 10:56:27;;;;;;;8.53;7.63;;;;;;;;;;5037617;28;20193;-57
2022/03/31 10:58:54;;;;;;;9.00;7.43;;;;;;;;;;5036359;28;20208;-57
2022/03/31 11:01:21;;;;;;;9.43;7.77;;;;;;;;;;5038725;28;20196;-55
2022/03/31 11:03:47;;;;;;;10.67;8.13;;;;;;;;;;5037167;28;20177;-56
2022/03/31 11:06:14;;;;;;;9.00;7.23;;;;;;;;;;5028279;28;20296;-56
2022/03/31 11:08:42;;;;;;;8.57;7.50;;;;;;;;;;5043635;28;20551;-56
2022/03/31 11:11:08;;;;;;;8.33;7.47;;;;;;;;;;5045309;28;20251;-56
2022/03/31 11:13:35;;;;;;;8.93;8.03;;;;;;;;;;5047437;28;20747;-57
2022/03/31 11:16:02;;;;;;;8.87;7.17;;;;;;;;;;5028538;28;20265;-58
2022/03/31 11:18:28;;;;;;;8.77;7.30;;;;;;;;;;5042862;28;20181;-56
2022/03/31 11:20:58;;;;;;;9.80;8.37;;;;;;;;;;5048797;28;20195;-59
2022/03/31 11:23:24;;;;;;;9.33;7.70;;;;;;;;;;5046726;28;20200;-57
2022/03/31 11:25:51;;;;;;;10.23;8.27;;;;;;;;;;5048344;28;20181;-57
2022/03/31 11:28:19;;;;;;;10.03;7.77;;;;;;;;;;5043150;28;20209;-55
2022/03/31 11:30:48;;;;;;;8.77;7.50;;;;;;;;;;5044974;28;20201;-54
2022/03/31 11:33:14;;;;;;;9.90;8.40;;;;;;;;;;5041093;28;20280;-55
2022/03/31 11:35:41;;;;;;;9.23;7.90;;;;;;;;;;5046357;28;20340;-57
2022/03/31 11:38:12;;;;;;;10.27;7.87;;;;;;;;;;5035430;28;20637;-54
2022/03/31 11:40:40;;;;;;;8.43;7.17;;;;;;;;;;5048038;28;20176;-54
2022/03/31 11:43:08;;;;;;;9.47;8.23;;;;;;;;;;5045342;28;20207;-55
2022/03/31 11:45:36;;;;;;;11.07;9.23;;;;;;;;;;5046009;28;20188;-56
2022/03/31 11:48:02;;;;;;;12.60;8.73;;;;;;;;;;5046499;28;20192;-55
2022/03/31 11:50:30;;;;;;;11.27;8.53;;;;;;;;;;5043128;28;20209;-54
2022/03/31 11:53:00;;;;;;;9.13;8.17;;;;;;;;;;5047870;28;20212;-55
2022/03/31 11:55:27;;;;;;;10.37;8.37;;;;;;;;;;5041052;28;20653;-55
2022/03/31 11:57:57;;;;;;;9.43;8.37;;;;;;;;;;5039869;28;20203;-55
2022/03/31 12:00:24;;;;;;;11.37;8.57;;;;;;;;;;5030710;28;20178;-54
2022/03/31 12:03:09;;;;;;;8.87;7.97;;;;;;;;;;5034571;28;20208;-55
2022/03/31 12:05:36;;;;;;;8.17;7.07;;;;;;;;;;5048880;28;20168;-55
2022/03/31 12:08:02;;;;;;;11.07;8.17;;;;;;;;;;5046984;28;20562;-55
2022/03/31 12:10:31;;;;;;;8.47;7.57;;;;;;;;;;5047702;28;20231;-55
2022/03/31 12:12:59;;;;;;;9.77;8.17;;;;;;;;;;5048283;28;20181;-55
2022/03/31 12:15:25;;;;;;;9.13;8.03;;;;;;;;;;5029341;28;20190;-56
2022/03/31 12:17:57;;;;;;;9.27;8.07;;;;;;;;;;5035125;28;20184;-55
2022/03/31 12:20:23;;;;;;;9.30;8.30;;;;;;;;;;5045997;28;20211;-56
2022/03/31 12:22:49;;;;;;;9.23;7.57;;;;;;;;;;5044001;28;20182;-56
2022/03/31 12:25:26;;;;;;;9.60;8.07;;;;;;;;;;5034643;28;20178;-56
2022/03/31 12:27:52;;;;;;;9.33;8.13;;;;;;;;;;5042460;28;20636;-55
2022/03/31 12:30:18;;;;;;;11.40;7.50;;;;;;;;;;5047204;28;20173;-55
2022/03/31 12:32:48;;;;;;;10.87;8.03;;;;;;;;;;5047829;28;20177;-54
2022/03/31 12:35:14;;;;;;;9.73;8.30;;;;;;;;;;5046305;28;20192;-55
2022/03/31 12:37:42;;;;;;;11.37;7.17;;;;;;;;;;5046731;28;20636;-55
2022/03/31 12:40:12;;;;;;;10.80;7.60;;;;;;;;;;5047575;28;20184;-54
2022/03/31 12:42:50;;;;;;;10.00;8.03;;;;;;;;;;5041862;28;20557;-55
2022/03/31 12:45:16;;;;;;;8.20;6.93;;;;;;;;;;5048001;28;20181;-56
2022/03/31 12:47:43;;;;;;;10.20;7.60;;;;;;;;;;5057017;28;20204;-55
2022/03/31 12:50:20;;;;;;;10.77;8.43;;;;;;;;;;5045048;28;20267;-55
2022/03/31 12:52:59;;;;;;;8.40;7.60;;;;;;;;;;5046531;28;20566;-55
2022/03/31 12:55:32;;;;;;;10.03;7.17;;;;;;;;;;5028882;28;20185;-57
2022/03/31 12:57:59;;;;;;;10.23;8.10;;;;;;;;;;5036679;28;20564;-55
2022/03/31 13:00:26;;;;;;;8.10;7.00;;;;;;;;;;5049283;28;20181;-58
2022/03/31 13:02:53;;;;;;;10.50;7.17;;;;;;;;;;5045967;28;20178;-55
2022/03/31 13:05:20;;;;;;;11.77;7.80;;;;;;;;;;5048027;28;20169;-55
2022/03/31 13:07:47;;;;;;;8.43;7.50;;;;;;;;;;5047625;28;20637;-56
2022/03/31 13:10:13;;;;;;;8.83;7.90;;;;;;;;;;5046839;28;20703;-55
2022/03/31 13:12:39;;;;;;;8.17;7.27;;;;;;;;;;5046164;28;20216;-55
2022/03/31 13:15:10;;;;;;;8.90;7.73;;;;;;;;;;5048349;28;20607;-55
2022/03/31 13:17:36;;;;;;;9.67;7.57;;;;;;;;;;5047995;28;20298;-58
2022/03/31 13:20:03;;;;;;;9.07;7.93;;;;;;;;;;5048102;28;20208;-55
2022/03/31 13:22:29;;;;;;;9.37;7.90;;;;;;;;;;5042070;28;20185;-56
2022/03/31 13:24:59;;;;;;;8.53;7.63;;;;;;;;;;5041502;28;20495;-55
2022/03/31 13:27:26;;;;;;;9.73;8.07;;;;;;;;;;5045700;28;20200;-55
2022/03/31 13:29:52;;;;;;;9.67;8.23;;;;;;;;;;5045053;28;20234;-54
2022/03/31 13:32:19;;;;;;;10.73;8.03;;;;;;;;;;5044276;28;20266;-56
2022/03/31 13:34:46;;;;;;;10.23;8.40;;;;;;;;;;5035751;28;20180;-55
2022/03/31 13:37:13;;;;;;;9.80;8.50;;;;;;;;;;5039039;28;20657;-55
2022/03/31 13:39:40;;;;;;;9.53;8.60;;;;;;;;;;5048428;28;20185;-55
2022/03/31 13:42:07;;;;;;;10.13;7.93;;;;;;;;;;5045524;28;21782;-57
2022/03/31 13:44:33;;;;;;;9.23;8.17;;;;;;;;;;5043614;28;20185;-55
2022/03/31 13:46:59;;;;;;;9.80;8.80;;;;;;;;;;5043986;28;20631;-56
2022/03/31 13:49:26;;;;;;;10.63;8.33;;;;;;;;;;5047230;28;20173;-55
2022/03/31 13:51:53;;;;;;;9.73;8.03;;;;;;;;;;5039203;28;20213;-54
2022/03/31 13:54:20;;;;;;;9.30;8.40;;;;;;;;;;5037068;28;20767;-55
2022/03/31 13:56:47;;;;;;;9.80;8.80;;;;;;;;;;5041975;28;20232;-55
2022/03/31 14:02:00;;;;;;;9.60;7.70;;;;;;;;;;5041445;28;20200;-58
2022/03/31 14:04:27;;;;;;;10.77;8.53;;;;;;;;;;5046597;28;20177;-56
2022/03/31 14:06:53;;;;;;;9.13;8.23;;;;;;;;;;5046226;28;20181;-56
2022/03/31 14:09:22;;;;;;;9.03;8.17;;;;;;;;;;5044157;28;20193;-56
2022/03/31 14:11:48;;;;;;;9.63;8.47;;;;;;;;;;5047900;28;20878;-55
2022/03/31 14:14:15;;;;;;;9.90;8.37;;;;;;;;;;5040580;28;20207;-56
2022/03/31 14:16:44;;;;;;;8.57;7.67;;;;;;;;;;5046594;28;20181;-55
2022/03/31 14:19:13;;;;;;;9.17;8.23;;;;;;;;;;5042392;28;20185;-55
2022/03/31 14:21:40;;;;;;;11.03;8.87;;;;;;;;;;5042045;28;20177;-56
2022/03/31 14:24:08;;;;;;;9.33;8.37;;;;;;;;;;5046679;28;20184;-56
2022/03/31 14:26:34;;;;;;;9.07;8.13;;;;;;;;;;5048650;28;20184;-54
2022/03/31 14:29:00;;;;;;;9.33;8.17;;;;;;;;;;5040825;28;20616;-54
2022/03/31 14:31:26;;;;;;;9.33;8.33;;;;;;;;;;5036277;28;21257;-55
2022/03/31 14:33:53;;;;;;;11.70;9.40;;;;;;;;;;5036198;28;20178;-54
2022/03/31 14:36:20;;;;;;;9.63;8.67;;;;;;;;;;5032838;28;20251;-56
2022/03/31 14:38:46;;;;;;;9.37;8.37;;;;;;;;;;5043412;28;20184;-55
2022/03/31 14:41:13;;;;;;;9.73;8.73;;;;;;;;;;5038037;28;20192;-55
2022/03/31 14:43:44;;;;;;;9.47;8.50;;;;;;;;;;5044423;28;20192;-55
2022/03/31 14:46:12;;;;;;;9.37;8.47;;;;;;;;;;5045876;28;20235;-55
2022/03/31 14:48:38;;;;;;;9.57;8.53;;;;;;;;;;5046481;28;20664;-57